createdAt,value
2018-07-10T00:02:33.875Z,54.49
2018-07-10T00:07:16.887Z,54.95
2018-07-10T00:09:56.554Z,54.73
2018-07-10T00:12:25.245Z,54.98
2018-07-10T00:14:53.873Z,54.55
2018-07-10T00:17:22.547Z,55.44
2018-07-10T00:19:51.212Z,55.29
2018-07-10T00:22:19.902Z,55.35
2018-07-10T00:24:48.688Z,55.23
2018-07-10T00:27:17.282Z,54.89
2018-07-10T00:29:45.893Z,55.27
2018-07-10T00:32:14.626Z,55.27
2018-07-10T00:34:43.212Z,54.97
2018-07-10T00:37:11.851Z,55.13
2018-07-10T00:39:40.650Z,55.70
2018-07-10T00:42:09.903Z,55.39
2018-07-10T00:44:38.749Z,55.54
2018-07-10T00:47:07.430Z,55.58
2018-07-10T00:49:36.125Z,55.75
2018-07-10T00:52:04.781Z,56.37
2018-07-10T00:54:33.444Z,55.97
2018-07-10T00:57:02.397Z,56.44
2018-07-10T00:59:31.088Z,56.44
2018-07-10T01:01:59.672Z,56.28
2018-07-10T01:04:28.537Z,56.71
2018-07-10T01:06:57.246Z,56.26
2018-07-10T01:09:25.922Z,55.95
2018-07-10T01:11:54.579Z,56.05
2018-07-10T01:14:23.297Z,56.67
2018-07-10T01:16:51.957Z,56.33
2018-07-10T01:19:20.613Z,56.93
2018-07-10T01:21:49.367Z,56.50
2018-07-10T01:24:18.862Z,56.83
2018-07-10T01:26:49.088Z,56.54
2018-07-10T01:29:23.134Z,56.76
2018-07-10T01:31:53.834Z,56.61
2018-07-10T01:34:22.851Z,57.10
2018-07-10T01:36:52.265Z,56.80
2018-07-10T01:39:20.935Z,57.50
2018-07-10T01:41:49.590Z,56.72
2018-07-10T01:44:18.305Z,56.61
2018-07-10T01:46:46.972Z,56.41
2018-07-10T01:49:15.704Z,56.86
2018-07-10T01:51:44.455Z,56.78
2018-07-10T01:54:13.322Z,57.30
2018-07-10T01:56:42.021Z,57.13
2018-07-10T01:59:10.745Z,57.17
2018-07-10T02:01:39.352Z,57.91
2018-07-10T02:04:08.147Z,57.56
2018-07-10T02:06:36.785Z,58.08
2018-07-10T02:09:05.824Z,58.20
2018-07-10T02:11:34.539Z,57.32
2018-07-10T02:14:03.283Z,57.84
2018-07-10T02:16:32.021Z,57.90
2018-07-10T02:19:00.780Z,58.50
2018-07-10T02:21:29.707Z,58.05
2018-07-10T02:23:58.376Z,58.56
2018-07-10T02:26:28.034Z,58.68
2018-07-10T02:28:57.257Z,58.30
2018-07-10T02:34:56.846Z,58.60
2018-07-10T02:37:25.535Z,58.55
2018-07-10T02:39:54.195Z,58.53
2018-07-10T02:42:23.384Z,58.90
2018-07-10T02:44:52.060Z,58.95
2018-07-10T02:47:21.075Z,59.57
2018-07-10T02:49:49.869Z,58.95
2018-07-10T02:52:18.582Z,58.81
2018-07-10T02:54:47.236Z,59.08
2018-07-10T02:57:16.004Z,58.63
2018-07-10T02:59:46.113Z,59.30
2018-07-10T03:02:22.792Z,59.16
2018-07-10T03:05:05.807Z,58.86
2018-07-10T03:07:36.761Z,58.90
2018-07-10T03:10:05.437Z,58.82
2018-07-10T03:12:36.120Z,59.34
2018-07-10T03:15:07.781Z,59.18
2018-07-10T03:17:36.501Z,59.66
2018-07-10T03:20:05.909Z,59.47
2018-07-10T03:22:34.633Z,59.02
2018-07-10T03:25:03.566Z,58.57
2018-07-10T03:27:32.330Z,58.78
2018-07-10T03:30:01.824Z,59.53
2018-07-10T03:32:30.812Z,59.34
2018-07-10T03:34:59.439Z,59.58
2018-07-10T03:37:28.616Z,59.67
2018-07-10T03:39:57.292Z,59.23
2018-07-10T03:42:27.387Z,59.62
2018-07-10T03:44:56.610Z,59.75
2018-07-10T03:47:26.543Z,59.03
2018-07-10T03:49:55.256Z,58.42
2018-07-10T03:52:32.153Z,58.25
2018-07-10T03:55:07.523Z,58.50
2018-07-10T03:57:36.291Z,58.51
2018-07-10T04:00:09.186Z,57.92
2018-07-10T04:02:53.983Z,57.90
2018-07-10T04:05:23.811Z,58.28
2018-07-10T04:07:54.023Z,58.42
2018-07-10T04:10:26.530Z,57.64
2018-07-10T04:12:55.992Z,57.91
2018-07-10T04:15:24.679Z,57.05
2018-07-10T04:18:04.761Z,57.27
2018-07-10T04:20:48.681Z,57.00
2018-07-10T04:23:17.331Z,57.17
2018-07-10T04:25:50.808Z,57.22
2018-07-10T04:28:24.481Z,56.77
2018-07-10T04:31:13.370Z,58.23
2018-07-10T04:33:42.990Z,57.21
2018-07-10T04:36:11.601Z,57.28
2018-07-10T04:38:40.580Z,57.60
2018-07-10T04:41:14.666Z,57.63
2018-07-10T04:43:48.507Z,57.48
2018-07-10T04:46:17.209Z,57.50
2018-07-10T04:48:47.323Z,57.32
2018-07-10T04:51:32.829Z,57.25
2018-07-10T04:54:25.329Z,57.62
2018-07-10T04:57:00.601Z,57.37
2018-07-10T04:59:29.311Z,57.26
2018-07-10T05:01:57.957Z,57.06
2018-07-10T05:04:26.550Z,56.99
2018-07-10T05:06:55.274Z,57.09
2018-07-10T05:09:24.061Z,56.99
2018-07-10T05:11:52.693Z,56.71
2018-07-10T05:14:21.497Z,56.85
2018-07-10T05:16:50.174Z,56.83
2018-07-10T05:19:18.926Z,57.92
2018-07-10T05:21:47.607Z,58.44
2018-07-10T05:24:16.385Z,58.70
2018-07-10T05:26:45.272Z,58.42
2018-07-10T05:29:14.452Z,58.57
2018-07-10T05:31:43.184Z,58.02
2018-07-10T05:34:11.793Z,59.04
2018-07-10T05:36:40.380Z,59.78
2018-07-10T05:39:09.532Z,59.71
2018-07-10T05:41:43.762Z,60.33
2018-07-10T05:44:16.785Z,59.87
2018-07-10T05:46:45.503Z,59.05
2018-07-10T05:49:14.279Z,58.91
2018-07-10T05:51:44.891Z,59.22
2018-07-10T05:54:13.755Z,59.16
2018-07-10T05:56:42.495Z,60.23
2018-07-10T05:59:11.081Z,59.39
2018-07-10T06:01:40.526Z,59.64
2018-07-10T06:04:11.339Z,59.17
2018-07-10T06:06:40.043Z,59.22
2018-07-10T06:09:09.223Z,59.46
2018-07-10T06:11:37.921Z,59.51
2018-07-10T06:14:06.729Z,58.77
2018-07-10T06:16:36.858Z,59.11
2018-07-10T06:19:05.726Z,58.79
2018-07-10T06:21:37.504Z,59.02
2018-07-10T06:24:11.281Z,59.13
2018-07-10T06:26:41.365Z,58.60
2018-07-10T06:29:10.619Z,58.63
2018-07-10T06:31:47.862Z,58.16
2018-07-10T06:34:16.536Z,58.20
2018-07-10T06:37:03.385Z,56.91
2018-07-10T06:39:32.243Z,56.69
2018-07-10T06:42:08.924Z,56.36
2018-07-10T06:44:38.326Z,56.15
2018-07-10T06:47:41.184Z,56.64
2018-07-10T06:50:09.938Z,55.43
2018-07-10T06:52:41.385Z,54.58
2018-07-10T06:55:14.014Z,53.67
2018-07-10T06:57:55.015Z,52.51
2018-07-10T07:00:24.642Z,51.55
2018-07-10T07:02:53.328Z,50.62
2018-07-10T07:05:21.943Z,50.39
2018-07-10T07:07:50.655Z,50.15
2018-07-10T07:10:19.303Z,49.85
2018-07-10T07:12:47.929Z,49.28
2018-07-10T07:15:20.664Z,49.21
2018-07-10T07:17:50.190Z,48.91
2018-07-10T07:20:19.879Z,47.65
2018-07-10T07:22:48.640Z,47.75
2018-07-10T07:25:17.330Z,48.72
2018-07-10T07:27:45.969Z,46.58
2018-07-10T07:30:14.574Z,46.46
2018-07-10T07:32:43.522Z,46.80
2018-07-10T07:35:12.127Z,47.26
2018-07-10T07:37:41.853Z,45.05
2018-07-10T07:40:11.817Z,45.63
2018-07-10T07:42:41.106Z,45.12
2018-07-10T07:45:10.138Z,43.48
2018-07-10T07:47:38.790Z,44.30
2018-07-10T07:50:07.498Z,43.92
2018-07-10T07:52:36.197Z,44.89
2018-07-10T07:55:04.913Z,42.77
2018-07-10T07:57:33.680Z,42.54
2018-07-10T08:00:02.373Z,41.69
2018-07-10T08:02:30.952Z,42.48
2018-07-10T08:04:59.653Z,43.19
2018-07-10T08:07:28.429Z,42.04
2018-07-10T08:09:58.012Z,41.40
2018-07-10T08:12:28.753Z,39.59
2018-07-10T08:14:57.776Z,40.88
2018-07-10T08:17:26.633Z,40.04
2018-07-10T08:19:56.990Z,39.57
2018-07-10T08:22:26.357Z,39.35
2018-07-10T08:24:55.302Z,40.12
2018-07-10T08:27:24.485Z,41.89
2018-07-10T08:29:53.630Z,39.89
2018-07-10T08:32:22.365Z,39.70
2018-07-10T08:34:50.951Z,39.27
2018-07-10T08:37:19.611Z,39.21
2018-07-10T08:39:48.291Z,37.83
2018-07-10T08:42:16.930Z,38.27
2018-07-10T08:44:45.672Z,37.71
2018-07-10T08:47:14.458Z,37.65
2018-07-10T08:49:43.198Z,37.53
2018-07-10T08:52:13.044Z,36.73
2018-07-10T08:54:41.773Z,36.44
2018-07-10T08:57:10.646Z,36.47
2018-07-10T08:59:39.902Z,36.64
2018-07-10T09:02:08.591Z,36.27
2018-07-10T09:04:37.275Z,37.28
2018-07-10T09:07:06.419Z,36.92
2018-07-10T09:09:35.073Z,36.71
2018-07-10T09:12:03.905Z,37.66
2018-07-10T09:14:32.535Z,36.80
2018-07-10T09:17:01.115Z,36.26
2018-07-10T09:19:31.026Z,37.67
2018-07-10T09:22:03.636Z,36.90
2018-07-10T09:24:33.511Z,36.19
2018-07-10T09:27:03.234Z,36.74
2018-07-10T09:29:31.899Z,37.35
2018-07-10T09:32:00.620Z,36.47
2018-07-10T09:34:29.312Z,36.83
2018-07-10T09:36:57.897Z,37.44
2018-07-10T09:39:27.385Z,39.15
2018-07-10T09:41:56.845Z,36.25
2018-07-10T09:44:26.153Z,36.28
2018-07-10T09:46:54.848Z,35.79
2018-07-10T09:49:23.542Z,35.27
2018-07-10T09:51:52.361Z,35.89
2018-07-10T09:54:21.015Z,36.22
2018-07-10T09:56:49.626Z,34.89
2018-07-10T09:59:18.389Z,34.69
2018-07-10T10:01:47.493Z,36.15
2018-07-10T10:04:16.113Z,36.94
2018-07-10T10:06:44.786Z,36.98
2018-07-10T10:09:13.482Z,35.73
2018-07-10T10:11:42.185Z,36.66
2018-07-10T10:14:10.898Z,36.93
2018-07-10T10:16:39.642Z,36.47
2018-07-10T10:19:08.600Z,38.55
2018-07-10T10:21:37.280Z,37.30
2018-07-10T10:24:06.046Z,36.00
2018-07-10T10:26:34.963Z,36.90
2018-07-10T10:29:03.610Z,35.72
2018-07-10T10:31:32.398Z,37.72
2018-07-10T10:34:01.188Z,35.86
2018-07-10T10:36:29.847Z,36.21
2018-07-10T10:38:58.481Z,36.13
2018-07-10T10:41:27.156Z,35.86
2018-07-10T10:43:55.831Z,35.56
2018-07-10T10:46:24.484Z,35.20
2018-07-10T10:48:53.405Z,34.87
2018-07-10T10:51:23.141Z,34.88
2018-07-10T10:53:52.261Z,33.93
2018-07-10T10:56:20.928Z,34.75
2018-07-10T10:58:49.802Z,34.07
2018-07-10T11:01:18.612Z,32.88
2018-07-10T11:03:47.305Z,34.57
2018-07-10T11:06:16.057Z,33.32
2018-07-10T11:08:44.720Z,34.41
2018-07-10T11:11:13.430Z,33.42
2018-07-10T11:13:42.197Z,32.16
2018-07-10T11:16:10.871Z,33.45
2018-07-10T11:18:51.731Z,32.58
2018-07-10T11:21:27.838Z,32.47
2018-07-10T11:23:58.639Z,32.55
2018-07-10T11:26:35.223Z,30.33
2018-07-10T11:29:05.140Z,30.97
2018-07-10T11:31:33.885Z,30.14
2018-07-10T11:34:02.580Z,30.67
2018-07-10T11:36:31.255Z,30.82
2018-07-10T11:39:06.508Z,30.49
2018-07-10T11:41:38.954Z,29.82
2018-07-10T11:44:08.957Z,30.91
2018-07-10T11:46:38.144Z,29.98
2018-07-10T11:49:06.788Z,28.77
2018-07-10T11:51:35.621Z,28.23
2018-07-10T11:54:04.645Z,28.99
2018-07-10T11:56:34.537Z,30.95
2018-07-10T11:59:03.744Z,30.27
2018-07-10T12:01:33.738Z,28.27
2018-07-10T12:04:02.636Z,27.64
2018-07-10T12:06:31.683Z,29.29
2018-07-10T12:09:00.702Z,29.17
2018-07-10T12:11:31.404Z,28.04
2018-07-10T12:14:00.161Z,27.67
2018-07-10T12:16:28.856Z,27.21
2018-07-10T12:18:57.485Z,27.28
2018-07-10T12:21:26.170Z,25.76
2018-07-10T12:23:54.839Z,27.84
2018-07-10T12:26:23.516Z,26.06
2018-07-10T12:28:52.471Z,25.78
2018-07-10T12:31:21.157Z,26.86
2018-07-10T12:33:49.971Z,26.82
2018-07-10T12:36:18.592Z,27.87
2018-07-10T12:38:47.269Z,27.01
2018-07-10T12:41:16.115Z,25.06
2018-07-10T12:43:44.749Z,26.47
2018-07-10T12:46:13.558Z,26.27
2018-07-10T12:48:42.252Z,25.12
2018-07-10T12:51:11.193Z,26.61
2018-07-10T12:53:40.076Z,27.18
2018-07-10T12:56:08.800Z,26.55
2018-07-10T12:58:41.153Z,25.29
2018-07-10T13:01:10.149Z,26.19
2018-07-10T13:03:38.935Z,24.84
2018-07-10T13:06:07.596Z,24.49
2018-07-10T13:08:36.288Z,25.25
2018-07-10T13:11:04.960Z,25.58
2018-07-10T13:13:33.710Z,22.56
2018-07-10T13:16:02.440Z,23.16
2018-07-10T13:18:33.174Z,23.54
2018-07-10T13:21:01.739Z,23.31
2018-07-10T13:23:30.455Z,23.01
2018-07-10T13:25:59.083Z,21.92
2018-07-10T13:28:27.947Z,19.37
2018-07-10T13:30:56.589Z,20.10
2018-07-10T13:33:25.214Z,19.04
2018-07-10T13:35:53.888Z,21.35
2018-07-10T13:38:23.190Z,21.19
2018-07-10T13:40:54.115Z,20.46
2018-07-10T13:43:22.768Z,19.46
2018-07-10T13:45:51.387Z,18.01
2018-07-10T13:48:20.131Z,19.96
2018-07-10T13:50:48.771Z,19.76
2018-07-10T13:53:17.421Z,17.66
2018-07-10T13:55:46.125Z,20.93
2018-07-10T13:58:20.167Z,22.17
2018-07-10T14:00:51.244Z,22.30
2018-07-10T14:03:19.914Z,22.32
2018-07-10T14:05:48.567Z,22.99
2018-07-10T14:08:17.234Z,23.69
2018-07-10T14:10:45.933Z,24.85
2018-07-10T14:13:14.632Z,24.23
2018-07-10T14:15:43.318Z,25.79
2018-07-10T14:18:12.127Z,26.12
2018-07-10T14:20:48.964Z,26.29
2018-07-10T14:23:17.673Z,26.92
2018-07-10T14:29:17.413Z,25.46
2018-07-10T14:31:46.061Z,25.90
2018-07-10T14:34:14.668Z,26.29
2018-07-10T14:36:43.390Z,26.97
2018-07-10T14:39:12.224Z,26.94
2018-07-10T14:41:40.895Z,27.58
2018-07-10T14:44:10.784Z,27.41
2018-07-10T14:46:39.390Z,26.95
2018-07-10T14:49:08.244Z,27.51
2018-07-10T14:51:42.711Z,28.01
2018-07-10T14:54:11.840Z,27.22
2018-07-10T14:56:40.946Z,25.81
2018-07-10T14:59:09.941Z,25.09
2018-07-10T15:01:39.438Z,24.24
2018-07-10T15:04:08.314Z,24.79
2018-07-10T15:06:37.614Z,22.87
2018-07-10T15:09:07.603Z,22.14
2018-07-10T15:11:36.876Z,22.67
2018-07-10T15:14:07.185Z,23.93
2018-07-10T15:16:41.527Z,24.25
2018-07-10T15:19:10.284Z,22.56
2018-07-10T15:21:39.077Z,24.35
2018-07-10T15:24:08.739Z,25.11
2018-07-10T15:26:37.368Z,25.00
2018-07-10T15:29:06.028Z,25.73
2018-07-10T15:31:34.754Z,26.73
2018-07-10T15:34:03.459Z,27.60
2018-07-10T15:36:32.215Z,27.89
2018-07-10T15:39:01.001Z,28.58
2018-07-10T15:41:31.301Z,28.53
2018-07-10T15:43:59.894Z,29.08
2018-07-10T15:46:28.735Z,28.93
2018-07-10T15:48:57.469Z,29.54
2018-07-10T15:51:26.176Z,29.05
2018-07-10T15:53:54.954Z,30.26
2018-07-10T15:56:23.782Z,30.06
2018-07-10T15:58:52.444Z,30.46
2018-07-10T16:01:21.169Z,30.18
2018-07-10T16:03:49.860Z,30.96
2018-07-10T16:06:18.767Z,30.84
2018-07-10T16:08:47.391Z,31.09
2018-07-10T16:11:16.055Z,30.65
2018-07-10T16:13:45.108Z,30.34
2018-07-10T16:16:16.561Z,29.69
2018-07-10T16:18:54.766Z,28.19
2018-07-10T16:21:25.930Z,28.41
2018-07-10T16:23:54.788Z,29.12
2018-07-10T16:26:24.219Z,28.21
2018-07-10T16:28:52.837Z,28.57
2018-07-10T16:31:22.348Z,27.74
2018-07-10T16:33:51.001Z,27.64
2018-07-10T16:36:19.934Z,26.96
2018-07-10T16:38:49.370Z,27.95
2018-07-10T16:41:23.581Z,27.85
2018-07-10T16:43:53.972Z,27.99
2018-07-10T16:46:27.669Z,28.75
2018-07-10T16:49:03.970Z,28.47
2018-07-10T16:51:39.156Z,28.73
2018-07-10T16:54:07.786Z,28.60
2018-07-10T16:56:36.600Z,28.49
2018-07-10T16:59:05.565Z,29.10
2018-07-10T17:01:34.195Z,29.08
2018-07-10T17:04:04.528Z,27.98
2018-07-10T17:06:33.154Z,28.26
2018-07-10T17:09:01.837Z,27.16
2018-07-10T17:11:30.435Z,27.17
2018-07-10T17:13:59.132Z,27.31
2018-07-10T17:16:27.842Z,28.14
2018-07-10T17:18:56.960Z,27.38
2018-07-10T17:21:26.598Z,27.36
2018-07-10T17:23:56.170Z,27.58
2018-07-10T17:26:24.859Z,28.23
2018-07-10T17:28:54.178Z,28.12
2018-07-10T17:31:22.938Z,28.43
2018-07-10T17:33:51.600Z,27.85
2018-07-10T17:36:20.267Z,28.83
2018-07-10T17:38:49.576Z,28.65
2018-07-10T17:41:18.257Z,28.77
2018-07-10T17:43:46.992Z,29.19
2018-07-10T17:46:16.086Z,29.28
2018-07-10T17:48:44.753Z,29.26
2018-07-10T17:51:13.934Z,29.73
2018-07-10T17:53:42.725Z,30.06
2018-07-10T17:56:11.303Z,29.64
2018-07-10T17:58:40.099Z,30.19
2018-07-10T18:01:09.103Z,30.03
2018-07-10T18:03:38.415Z,29.99
2018-07-10T18:06:07.696Z,30.75
2018-07-10T18:08:36.824Z,30.36
2018-07-10T18:11:05.506Z,30.56
2018-07-10T18:13:34.273Z,31.20
2018-07-10T18:16:03.104Z,31.12
2018-07-10T18:18:32.078Z,31.39
2018-07-10T18:21:01.008Z,31.43
2018-07-10T18:23:29.982Z,31.91
2018-07-10T18:25:58.558Z,32.08
2018-07-10T18:28:27.155Z,32.49
2018-07-10T18:30:55.844Z,32.17
2018-07-10T18:33:24.619Z,32.33
2018-07-10T18:35:53.600Z,32.81
2018-07-10T18:38:22.252Z,32.57
2018-07-10T18:40:51.634Z,32.48
2018-07-10T18:43:20.454Z,32.66
2018-07-10T18:45:49.159Z,33.19
2018-07-10T18:48:23.983Z,33.32
2018-07-10T18:50:52.718Z,33.63
2018-07-10T18:53:21.395Z,34.14
2018-07-10T18:55:51.105Z,34.14
2018-07-10T18:58:29.979Z,34.08
2018-07-10T19:01:09.123Z,34.80
2018-07-10T19:03:38.107Z,35.03
2018-07-10T19:06:12.160Z,35.13
2018-07-10T19:08:44.133Z,35.87
2018-07-10T19:11:17.281Z,36.09
2018-07-10T19:13:46.465Z,36.24
2018-07-10T19:16:15.693Z,35.97
2018-07-10T19:18:44.527Z,35.73
2018-07-10T19:21:32.124Z,36.41
2018-07-10T19:24:05.077Z,36.41
2018-07-10T19:26:35.165Z,36.50
2018-07-10T19:29:15.197Z,36.70
2018-07-10T19:31:44.287Z,36.50
2018-07-10T19:34:13.486Z,36.58
2018-07-10T19:36:42.428Z,36.80
2018-07-10T19:39:11.794Z,37.67
2018-07-10T19:41:40.498Z,37.60
2018-07-10T19:44:09.235Z,37.94
2018-07-10T19:46:38.792Z,38.29
2018-07-10T19:49:08.415Z,38.25
2018-07-10T19:51:39.483Z,38.75
2018-07-10T19:54:12.038Z,38.87
2018-07-10T19:56:41.118Z,39.09
2018-07-10T19:59:12.099Z,39.27
2018-07-10T20:01:52.651Z,39.67
2018-07-10T20:04:35.319Z,39.84
2018-07-10T20:07:26.302Z,40.48
2018-07-10T20:10:03.730Z,40.57
2018-07-10T20:12:43.275Z,40.92
2018-07-10T20:15:21.857Z,40.59
2018-07-10T20:17:59.757Z,41.24
2018-07-10T20:20:30.812Z,41.91
2018-07-10T20:23:20.463Z,41.81
2018-07-10T20:26:13.599Z,41.83
2018-07-10T20:30:54.087Z,41.46
2018-07-10T20:33:32.547Z,42.19
2018-07-10T20:36:05.167Z,42.20
2018-07-10T20:38:34.977Z,42.81
2018-07-10T20:41:05.093Z,42.90
2018-07-10T20:43:38.973Z,42.87
2018-07-10T20:46:07.669Z,43.02
2018-07-10T20:48:44.181Z,42.97
2018-07-10T20:51:15.562Z,42.59
2018-07-10T20:53:56.228Z,42.75
2018-07-10T20:56:48.323Z,42.12
2018-07-10T20:59:23.072Z,42.49
2018-07-10T21:01:55.161Z,42.95
2018-07-10T21:04:35.718Z,42.84
2018-07-10T21:07:15.042Z,42.79
2018-07-10T21:10:01.830Z,43.88
2018-07-10T21:13:06.772Z,43.92
2018-07-10T21:15:49.877Z,44.31
2018-07-10T21:18:32.832Z,45.00
2018-07-10T21:21:11.713Z,44.88
2018-07-10T21:25:52.882Z,45.58
2018-07-10T21:28:41.276Z,46.53
2018-07-10T21:31:18.000Z,47.55
2018-07-10T21:34:15.275Z,48.16
2018-07-10T21:36:58.346Z,47.92
2018-07-10T21:41:52.993Z,48.30
2018-07-10T21:44:32.498Z,50.58
2018-07-10T21:47:06.579Z,50.51
2018-07-10T21:49:41.298Z,51.19
2018-07-10T21:52:09.988Z,52.38
2018-07-10T21:54:38.706Z,51.48
2018-07-10T21:57:07.359Z,51.63
2018-07-10T21:59:39.361Z,51.85
2018-07-10T22:02:09.826Z,52.62
2018-07-10T22:04:40.424Z,52.64
2018-07-10T22:07:11.116Z,52.75
2018-07-10T22:09:40.396Z,52.56
2018-07-10T22:12:10.538Z,52.97
2018-07-10T22:14:39.340Z,52.50
2018-07-10T22:17:19.456Z,52.65
2018-07-10T22:19:50.182Z,52.58
2018-07-10T22:22:21.119Z,52.83
2018-07-10T22:24:50.700Z,52.76
2018-07-10T22:27:20.083Z,53.35
2018-07-10T22:29:53.972Z,53.43
2018-07-10T22:32:29.874Z,53.50
2018-07-10T22:34:58.527Z,53.80
2018-07-10T22:37:27.191Z,53.88
2018-07-10T22:39:55.974Z,54.02
2018-07-10T22:42:24.758Z,53.76
2018-07-10T22:44:55.519Z,54.73
2018-07-10T22:47:29.220Z,55.12
2018-07-10T22:50:02.276Z,54.76
2018-07-10T22:52:31.197Z,54.91
2018-07-10T22:54:59.856Z,55.16
2018-07-10T22:57:28.562Z,55.66
2018-07-10T22:59:58.365Z,56.67
2018-07-10T23:02:27.130Z,55.70
2018-07-10T23:04:55.754Z,55.63
2018-07-10T23:07:24.451Z,55.97
2018-07-10T23:09:53.125Z,56.02
2018-07-10T23:12:21.977Z,56.36
2018-07-10T23:14:50.573Z,56.82
2018-07-10T23:17:19.440Z,55.54
2018-07-10T23:19:48.103Z,55.58
2018-07-10T23:22:16.749Z,55.14
2018-07-10T23:24:45.437Z,55.68
2018-07-10T23:27:14.066Z,55.93
2018-07-10T23:29:42.755Z,55.91
2018-07-10T23:32:11.407Z,56.66
2018-07-10T23:34:40.377Z,58.69
2018-07-10T23:37:13.710Z,58.27
2018-07-10T23:39:47.382Z,57.57
2018-07-10T23:42:27.133Z,57.42
2018-07-10T23:44:56.609Z,58.30
2018-07-10T23:47:32.032Z,58.58
2018-07-10T23:50:06.487Z,60.02
2018-07-10T23:54:49.273Z,60.16
2018-07-10T23:57:18.206Z,58.91
2018-07-10T23:59:46.956Z,59.62
